Faust — SLKQ — position and weather

sailwx.info

Track history (hours):
 
Tides and Currents Weather Stations Pressure Air Temp Water Temp Dewpoint Dewpoint Depression Visibility Wind Speed Wind Dir Waves Ship Positions

Faust

Last reported at 2017-Dec-11 06:00 UTC. Time now 2017-Dec-11 17:16 UTC.
Position N 21°18' W 074°12'.

Length 227.8 m; beam 32.3 m; draft 9.5 m.

Type: Cargo ship. MMSI: 266260000.

Wind from 050 at 27 knots

Barometer 1014.0 mb
Air temperature 26.0 ° C
Visibility: greater than 10.8 NM
Water temperature 28.0 ° C

Date/timePositionNaut miles runAvg speedWind from/ knotsBaromVisibWave heightAir tempDewpointWater temp
2017-Dec-11 06:00N 21°18' W 074°12'76215.6 050 / 271014.010.8 26.0 28.0
2017-Dec-09 05:09N 09°46' W 079°42'317.2
2017-Dec-09 04:59N 09°43' W 079°43'817.0
2017-Dec-09 04:31N 09°36' W 079°48'917.1
2017-Dec-09 04:00N 09°29' W 079°52'612.8
2017-Dec-09 03:30N 09°23' W 079°54'1 1.7
2017-Dec-09 03:00N 09°22' W 079°53'0 0.0
2017-Dec-09 02:28N 09°22' W 079°53'0 0.0
2017-Dec-09 01:58N 09°22' W 079°53'0 0.0
2017-Dec-09 01:28N 09°22' W 079°53'0 0.0
2017-Dec-09 00:58N 09°22' W 079°53'0 0.0
2017-Dec-09 00:30N 09°22' W 079°53'0 0.0
2017-Dec-09 00:00N 09°22' W 079°53'0 0.0
2017-Dec-08 23:30N 09°22' W 079°53'0 0.0
2017-Dec-08 23:00N 09°22' W 079°53'0 0.6
2017-Dec-08 22:30N 09°22' W 079°53'3 6.4
2017-Dec-08 22:00N 09°25' W 079°54'0 0.5
2017-Dec-08 21:30N 09°26' W 079°54'3 6.5
2017-Dec-08 21:00N 09°22' W 079°55'4 8.9
2017-Dec-08 20:30N 09°18' W 079°55'1 2.7
2017-Dec-08 20:00N 09°17' W 079°55'0 0.4
2017-Dec-08 19:30N 09°16' W 079°55'0 0.6
2017-Dec-08 19:00N 09°16' W 079°55'0 0.7
2017-Dec-08 18:30N 09°16' W 079°55'1 1.8
2017-Dec-08 18:00N 09°15' W 079°55'4 8.6
2017-Dec-08 17:30N 09°11' W 079°53'  
2017-Dec-02 06:00N 18°06' W 108°06'9616.0 010 / 101013.010.8 26.6 28.9
2017-Dec-02 00:00N 18°36' W 109°42'9215.4 360 / 291012.010.8 26.0 28.0
2017-Dec-01 18:00N 19°12' W 111°12'9515.9 050 / 121015.5 5.4 25.7 27.2
2017-Dec-01 12:00N 19°42' W 112°48'9515.8 360 / 291013.010.8 24.0 27.0
2017-Dec-01 06:00N 20°12' W 114°24'   360 / 101015.610.8 23.1 25.7
Track history (hours):
 
Tides and Currents Weather Stations Pressure Air Temp Water Temp Dewpoint Dewpoint Depression Visibility Wind Speed Wind Dir Waves Ship Positions

Faust

Last reported at 2017-Dec-11 06:00 UTC. Time now 2017-Dec-11 17:16 UTC.
Position N 21°18' W 074°12'.

Length 227.8 m; beam 32.3 m; draft 9.5 m.

Type: Cargo ship. MMSI: 266260000.

Wind from 050 at 27 knots

Barometer 1014.0 mb
Air temperature 26.0 ° C
Visibility: greater than 10.8 NM
Water temperature 28.0 ° C

Date/timePositionNaut miles runAvg speedWind from/ knotsBaromVisibWave heightAir tempDewpointWater temp
2017-Dec-11 06:00N 21°18' W 074°12'76215.6 050 / 271014.010.8 26.0 28.0
2017-Dec-09 05:09N 09°46' W 079°42'317.2
2017-Dec-09 04:59N 09°43' W 079°43'817.0
2017-Dec-09 04:31N 09°36' W 079°48'917.1
2017-Dec-09 04:00N 09°29' W 079°52'612.8
2017-Dec-09 03:30N 09°23' W 079°54'1 1.7
2017-Dec-09 03:00N 09°22' W 079°53'0 0.0
2017-Dec-09 02:28N 09°22' W 079°53'0 0.0
2017-Dec-09 01:58N 09°22' W 079°53'0 0.0
2017-Dec-09 01:28N 09°22' W 079°53'0 0.0
2017-Dec-09 00:58N 09°22' W 079°53'0 0.0
2017-Dec-09 00:30N 09°22' W 079°53'0 0.0
2017-Dec-09 00:00N 09°22' W 079°53'0 0.0
2017-Dec-08 23:30N 09°22' W 079°53'0 0.0
2017-Dec-08 23:00N 09°22' W 079°53'0 0.6
2017-Dec-08 22:30N 09°22' W 079°53'3 6.4
2017-Dec-08 22:00N 09°25' W 079°54'0 0.5
2017-Dec-08 21:30N 09°26' W 079°54'3 6.5
2017-Dec-08 21:00N 09°22' W 079°55'4 8.9
2017-Dec-08 20:30N 09°18' W 079°55'1 2.7
2017-Dec-08 20:00N 09°17' W 079°55'0 0.4
2017-Dec-08 19:30N 09°16' W 079°55'0 0.6
2017-Dec-08 19:00N 09°16' W 079°55'0 0.7
2017-Dec-08 18:30N 09°16' W 079°55'1 1.8
2017-Dec-08 18:00N 09°15' W 079°55'4 8.6
2017-Dec-08 17:30N 09°11' W 079°53'  
2017-Dec-02 06:00N 18°06' W 108°06'9616.0 010 / 101013.010.8 26.6 28.9
2017-Dec-02 00:00N 18°36' W 109°42'9215.4 360 / 291012.010.8 26.0 28.0
2017-Dec-01 18:00N 19°12' W 111°12'9515.9 050 / 121015.5 5.4 25.7 27.2
2017-Dec-01 12:00N 19°42' W 112°48'9515.8 360 / 291013.010.8 24.0 27.0
2017-Dec-01 06:00N 20°12' W 114°24'   360 / 101015.610.8 23.1 25.7

Dump ship's entire track history